Mercer, Pennsylvania
Current Conditions -  °F | °C
As of 4:15 PM on Tuesday 21 Oct 2014 (Local Time) from KFKL Reporting Station
Overcast Overcast  
Wind Chill: 43°   Ceiling: 600
Heat Index: 46°   Visibility: 8mi
Dew Point: 43°   Wind: 7mph
Humidity: 87%   Direction: 290°WNW
Pressure: 29.92"   Gusts: NA
Location:  41.23°N, 80.24°W
Report Text: KFKL 212015Z 29006KT 8SM BKN006 OVC016 08/06 A2992 RMK AO1
Loading
Personal Weather Stations






























Interactive Weather Map
Tropical Storm Tracking
New forecast layout! Learn more

10-Day Weather Forecast

Advertisements
Track Severe Weather on mobile